sensor_id;sensor_type;location;lat;lon;timestamp;pressure;altitude;pressure_sealevel;temperature;humidity
9289;BME280;4683;50.864;12.086;2022-10-26T00:01:57;99385.88;;;9.70;100.00
9289;BME280;4683;50.864;12.086;2022-10-26T00:04:26;99390.50;;;9.68;100.00
9289;BME280;4683;50.864;12.086;2022-10-26T00:06:54;99389.34;;;9.62;100.00
9289;BME280;4683;50.864;12.086;2022-10-26T00:09:23;99393.47;;;9.65;100.00
9289;BME280;4683;50.864;12.086;2022-10-26T00:11:53;99383.94;;;9.64;100.00
9289;BME280;4683;50.864;12.086;2022-10-26T00:14:22;99396.28;;;9.63;100.00
9289;BME280;4683;50.864;12.086;2022-10-26T00:16:53;99384.06;;;9.62;100.00
9289;BME280;4683;50.864;12.086;2022-10-26T00:19:22;99390.19;;;9.63;100.00
9289;BME280;4683;50.864;12.086;2022-10-26T00:21:51;99394.13;;;9.59;100.00
9289;BME280;4683;50.864;12.086;2022-10-26T00:24:21;99391.66;;;9.57;100.00
9289;BME280;4683;50.864;12.086;2022-10-26T00:26:50;99391.19;;;9.54;100.00
9289;BME280;4683;50.864;12.086;2022-10-26T00:29:19;99396.09;;;9.49;100.00
9289;BME280;4683;50.864;12.086;2022-10-26T00:31:47;99399.09;;;9.46;100.00
9289;BME280;4683;50.864;12.086;2022-10-26T00:34:17;99392.50;;;9.42;100.00
9289;BME280;4683;50.864;12.086;2022-10-26T00:36:46;99392.00;;;9.38;100.00
9289;BME280;4683;50.864;12.086;2022-10-26T00:39:15;99394.94;;;9.35;100.00
9289;BME280;4683;50.864;12.086;2022-10-26T00:41:43;99394.47;;;9.31;100.00
9289;BME280;4683;50.864;12.086;2022-10-26T00:44:56;99393.97;;;9.20;100.00
9289;BME280;4683;50.864;12.086;2022-10-26T00:47:36;99398.09;;;9.22;100.00
9289;BME280;4683;50.864;12.086;2022-10-26T00:50:12;99398.75;;;9.24;100.00
9289;BME280;4683;50.864;12.086;2022-10-26T00:52:42;99397.44;;;9.28;100.00
9289;BME280;4683;50.864;12.086;2022-10-26T00:55:11;99398.41;;;9.35;100.00
9289;BME280;4683;50.864;12.086;2022-10-26T00:57:39;99398.09;;;9.38;100.00
9289;BME280;4683;50.864;12.086;2022-10-26T01:00:09;99390.84;;;9.40;100.00
9289;BME280;4683;50.864;12.086;2022-10-26T01:02:38;99394.31;;;9.33;100.00
9289;BME280;4683;50.864;12.086;2022-10-26T01:05:09;99401.06;;;9.27;100.00
9289;BME280;4683;50.864;12.086;2022-10-26T01:07:38;99395.94;;;9.26;100.00
9289;BME280;4683;50.864;12.086;2022-10-26T01:10:09;99396.09;;;9.24;100.00
9289;BME280;4683;50.864;12.086;2022-10-26T01:12:40;99391.16;;;9.21;100.00
9289;BME280;4683;50.864;12.086;2022-10-26T01:15:09;99394.78;;;9.20;100.00
9289;BME280;4683;50.864;12.086;2022-10-26T01:17:54;99389.19;;;9.15;100.00
9289;BME280;4683;50.864;12.086;2022-10-26T01:20:56;99397.41;;;9.12;100.00
9289;BME280;4683;50.864;12.086;2022-10-26T01:23:37;99392.13;;;9.12;100.00
9289;BME280;4683;50.864;12.086;2022-10-26T01:26:36;99382.94;;;9.00;100.00
9289;BME280;4683;50.864;12.086;2022-10-26T01:29:34;99392.44;;;8.93;100.00
9289;BME280;4683;50.864;12.086;2022-10-26T01:32:15;99391.63;;;8.92;100.00
9289;BME280;4683;50.864;12.086;2022-10-26T01:34:55;99390.81;;;8.92;100.00
9289;BME280;4683;50.864;12.086;2022-10-26T01:37:30;99388.50;;;8.97;100.00
9289;BME280;4683;50.864;12.086;2022-10-26T01:40:07;99392.59;;;8.99;100.00
9289;BME280;4683;50.864;12.086;2022-10-26T01:42:40;99383.41;;;9.03;100.00
9289;BME280;4683;50.864;12.086;2022-10-26T01:45:12;99387.03;;;9.02;100.00
9289;BME280;4683;50.864;12.086;2022-10-26T01:47:46;99384.06;;;8.97;100.00
9289;BME280;4683;50.864;12.086;2022-10-26T01:50:16;99383.56;;;8.94;100.00
9289;BME280;4683;50.864;12.086;2022-10-26T01:52:49;99382.25;;;8.89;100.00
9289;BME280;4683;50.864;12.086;2022-10-26T01:55:44;99379.28;;;8.84;100.00
9289;BME280;4683;50.864;12.086;2022-10-26T01:58:57;99376.50;;;8.86;100.00
9289;BME280;4683;50.864;12.086;2022-10-26T02:01:48;99369.56;;;8.85;100.00
9289;BME280;4683;50.864;12.086;2022-10-26T02:04:30;99367.44;;;8.88;100.00
9289;BME280;4683;50.864;12.086;2022-10-26T02:07:08;99362.03;;;8.98;100.00
9289;BME280;4683;50.864;12.086;2022-10-26T02:09:45;99360.09;;;9.08;100.00
9289;BME280;4683;50.864;12.086;2022-10-26T02:12:26;99363.69;;;9.15;100.00
9289;BME280;4683;50.864;12.086;2022-10-26T02:15:03;99359.56;;;9.21;100.00
9289;BME280;4683;50.864;12.086;2022-10-26T02:17:41;99355.63;;;9.25;100.00
9289;BME280;4683;50.864;12.086;2022-10-26T02:20:19;99346.75;;;9.26;100.00
9289;BME280;4683;50.864;12.086;2022-10-26T02:22:50;99347.41;;;9.28;100.00
9289;BME280;4683;50.864;12.086;2022-10-26T02:25:25;99346.59;;;9.36;100.00
9289;BME280;4683;50.864;12.086;2022-10-26T02:27:58;99345.09;;;9.42;100.00
9289;BME280;4683;50.864;12.086;2022-10-26T02:30:32;99353.00;;;9.42;100.00
9289;BME280;4683;50.864;12.086;2022-10-26T02:33:04;99349.38;;;9.43;100.00
9289;BME280;4683;50.864;12.086;2022-10-26T02:35:36;99345.91;;;9.42;100.00
9289;BME280;4683;50.864;12.086;2022-10-26T02:38:09;99350.69;;;9.47;100.00
9289;BME280;4683;50.864;12.086;2022-10-26T02:40:41;99342.94;;;9.53;100.00
9289;BME280;4683;50.864;12.086;2022-10-26T02:43:13;99336.53;;;9.56;100.00
9289;BME280;4683;50.864;12.086;2022-10-26T02:45:52;99336.84;;;9.53;100.00
9289;BME280;4683;50.864;12.086;2022-10-26T02:48:21;99328.63;;;9.48;100.00
9289;BME280;4683;50.864;12.086;2022-10-26T02:50:58;99335.88;;;9.46;100.00
9289;BME280;4683;50.864;12.086;2022-10-26T02:53:31;99339.16;;;9.48;100.00
9289;BME280;4683;50.864;12.086;2022-10-26T02:56:06;99338.03;;;9.50;100.00
9289;BME280;4683;50.864;12.086;2022-10-26T02:58:41;99339.47;;;9.53;100.00
9289;BME280;4683;50.864;12.086;2022-10-26T03:01:13;99339.66;;;9.59;100.00
9289;BME280;4683;50.864;12.086;2022-10-26T03:03:41;99336.19;;;9.59;100.00
9289;BME280;4683;50.864;12.086;2022-10-26T03:06:11;99334.88;;;9.55;100.00
9289;BME280;4683;50.864;12.086;2022-10-26T03:08:39;99339.66;;;9.51;100.00
9289;BME280;4683;50.864;12.086;2022-10-26T03:11:08;99334.56;;;9.50;100.00
9289;BME280;4683;50.864;12.086;2022-10-26T03:13:36;99331.94;;;9.50;100.00
9289;BME280;4683;50.864;12.086;2022-10-26T03:16:05;99333.06;;;9.47;100.00
9289;BME280;4683;50.864;12.086;2022-10-26T03:18:33;99337.34;;;9.48;100.00
9289;BME280;4683;50.864;12.086;2022-10-26T03:21:02;99337.19;;;9.50;100.00
9289;BME280;4683;50.864;12.086;2022-10-26T03:23:32;99331.75;;;9.51;100.00
9289;BME280;4683;50.864;12.086;2022-10-26T03:26:01;99340.47;;;9.52;100.00
9289;BME280;4683;50.864;12.086;2022-10-26T03:28:31;99331.25;;;9.48;100.00
9289;BME280;4683;50.864;12.086;2022-10-26T03:30:59;99336.53;;;9.48;100.00
9289;BME280;4683;50.864;12.086;2022-10-26T03:33:27;99335.53;;;9.49;100.00
9289;BME280;4683;50.864;12.086;2022-10-26T03:35:56;99335.88;;;9.54;100.00
9289;BME280;4683;50.864;12.086;2022-10-26T03:38:24;99330.56;;;9.62;100.00
9289;BME280;4683;50.864;12.086;2022-10-26T03:40:54;99328.09;;;9.69;100.00
9289;BME280;4683;50.864;12.086;2022-10-26T03:43:23;99329.56;;;9.71;100.00
9289;BME280;4683;50.864;12.086;2022-10-26T03:45:52;99329.25;;;9.74;100.00
9289;BME280;4683;50.864;12.086;2022-10-26T03:48:20;99324.31;;;9.71;100.00
9289;BME280;4683;50.864;12.086;2022-10-26T03:50:49;99327.94;;;9.70;100.00
9289;BME280;4683;50.864;12.086;2022-10-26T03:53:17;99320.34;;;9.67;100.00
9289;BME280;4683;50.864;12.086;2022-10-26T03:55:45;99316.91;;;9.66;100.00
9289;BME280;4683;50.864;12.086;2022-10-26T03:58:15;99321.34;;;9.66;100.00
9289;BME280;4683;50.864;12.086;2022-10-26T04:00:43;99319.91;;;9.63;100.00
9289;BME280;4683;50.864;12.086;2022-10-26T04:03:12;99321.34;;;9.66;100.00
9289;BME280;4683;50.864;12.086;2022-10-26T04:05:40;99315.94;;;9.68;100.00
9289;BME280;4683;50.864;12.086;2022-10-26T04:08:09;99314.75;;;9.70;100.00
9289;BME280;4683;50.864;12.086;2022-10-26T04:10:38;99319.84;;;9.72;100.00
9289;BME280;4683;50.864;12.086;2022-10-26T04:13:09;99320.69;;;9.72;100.00
9289;BME280;4683;50.864;12.086;2022-10-26T04:15:39;99319.22;;;9.70;100.00
9289;BME280;4683;50.864;12.086;2022-10-26T04:18:08;99316.41;;;9.71;100.00
9289;BME280;4683;50.864;12.086;2022-10-26T04:20:39;99321.66;;;9.71;100.00
9289;BME280;4683;50.864;12.086;2022-10-26T04:23:11;99314.59;;;9.72;100.00
9289;BME280;4683;50.864;12.086;2022-10-26T04:25:41;99316.72;;;9.76;100.00
9289;BME280;4683;50.864;12.086;2022-10-26T04:28:11;99316.38;;;9.79;100.00
9289;BME280;4683;50.864;12.086;2022-10-26T04:30:41;99315.06;;;9.83;100.00
9289;BME280;4683;50.864;12.086;2022-10-26T04:33:09;99322.63;;;9.86;100.00
9289;BME280;4683;50.864;12.086;2022-10-26T04:35:38;99322.97;;;9.83;100.00
9289;BME280;4683;50.864;12.086;2022-10-26T04:38:08;99322.78;;;9.85;100.00
9289;BME280;4683;50.864;12.086;2022-10-26T04:40:36;99317.38;;;9.86;100.00
9289;BME280;4683;50.864;12.086;2022-10-26T04:43:04;99320.00;;;9.86;100.00
9289;BME280;4683;50.864;12.086;2022-10-26T04:45:33;99312.91;;;9.87;100.00
9289;BME280;4683;50.864;12.086;2022-10-26T04:48:05;99307.66;;;9.87;100.00
9289;BME280;4683;50.864;12.086;2022-10-26T04:50:34;99302.50;;;9.94;100.00
9289;BME280;4683;50.864;12.086;2022-10-26T04:53:05;99302.16;;;9.97;100.00
9289;BME280;4683;50.864;12.086;2022-10-26T04:55:34;99304.97;;;9.95;100.00
9289;BME280;4683;50.864;12.086;2022-10-26T04:58:03;99300.16;;;9.99;100.00
9289;BME280;4683;50.864;12.086;2022-10-26T05:00:32;99292.94;;;10.01;100.00
9289;BME280;4683;50.864;12.086;2022-10-26T05:03:05;99296.50;;;10.08;100.00
9289;BME280;4683;50.864;12.086;2022-10-26T05:05:35;99304.09;;;10.11;100.00
9289;BME280;4683;50.864;12.086;2022-10-26T05:08:04;99299.16;;;10.08;100.00
9289;BME280;4683;50.864;12.086;2022-10-26T05:10:33;99289.31;;;9.94;100.00
9289;BME280;4683;50.864;12.086;2022-10-26T05:13:01;99288.84;;;9.90;100.00
9289;BME280;4683;50.864;12.086;2022-10-26T05:15:30;99293.47;;;9.88;100.00
9289;BME280;4683;50.864;12.086;2022-10-26T05:18:02;99288.69;;;9.91;100.00
9289;BME280;4683;50.864;12.086;2022-10-26T05:20:33;99290.31;;;9.93;100.00
9289;BME280;4683;50.864;12.086;2022-10-26T05:23:04;99289.53;;;9.84;100.00
9289;BME280;4683;50.864;12.086;2022-10-26T05:25:35;99291.00;;;9.86;100.00
9289;BME280;4683;50.864;12.086;2022-10-26T05:28:07;99290.63;;;9.98;100.00
9289;BME280;4683;50.864;12.086;2022-10-26T05:30:37;99291.41;;;10.06;100.00
9289;BME280;4683;50.864;12.086;2022-10-26T05:33:09;99297.59;;;10.30;100.00
9289;BME280;4683;50.864;12.086;2022-10-26T05:35:38;99300.34;;;10.45;100.00
9289;BME280;4683;50.864;12.086;2022-10-26T05:38:07;99304.56;;;10.54;100.00
9289;BME280;4683;50.864;12.086;2022-10-26T05:40:36;99304.88;;;10.59;100.00
9289;BME280;4683;50.864;12.086;2022-10-26T05:43:05;99301.34;;;10.66;100.00
9289;BME280;4683;50.864;12.086;2022-10-26T05:45:33;99310.06;;;10.67;100.00
9289;BME280;4683;50.864;12.086;2022-10-26T05:48:02;99308.44;;;10.66;100.00
9289;BME280;4683;50.864;12.086;2022-10-26T05:50:32;99302.34;;;10.65;100.00
9289;BME280;4683;50.864;12.086;2022-10-26T05:53:00;99302.34;;;10.65;100.00
9289;BME280;4683;50.864;12.086;2022-10-26T05:55:29;99306.09;;;10.71;100.00
9289;BME280;4683;50.864;12.086;2022-10-26T05:57:59;99308.66;;;10.79;100.00
9289;BME280;4683;50.864;12.086;2022-10-26T06:00:29;99317.69;;;10.85;100.00
9289;BME280;4683;50.864;12.086;2022-10-26T06:03:11;99308.81;;;10.86;100.00
9289;BME280;4683;50.864;12.086;2022-10-26T06:05:53;99315.44;;;10.82;100.00
9289;BME280;4683;50.864;12.086;2022-10-26T06:08:24;99309.91;;;10.91;100.00
9289;BME280;4683;50.864;12.086;2022-10-26T06:10:54;99313.47;;;10.99;100.00
9289;BME280;4683;50.864;12.086;2022-10-26T06:13:25;99307.50;;;11.05;100.00
9289;BME280;4683;50.864;12.086;2022-10-26T06:16:24;99312.78;;;11.05;100.00
9289;BME280;4683;50.864;12.086;2022-10-26T06:19:06;99311.34;;;11.17;100.00
9289;BME280;4683;50.864;12.086;2022-10-26T06:21:56;99311.28;;;11.25;100.00
9289;BME280;4683;50.864;12.086;2022-10-26T06:24:35;99311.00;;;11.35;100.00
9289;BME280;4683;50.864;12.086;2022-10-26T06:27:22;99310.31;;;11.41;100.00
9289;BME280;4683;50.864;12.086;2022-10-26T06:30:01;99312.22;;;11.47;100.00
9289;BME280;4683;50.864;12.086;2022-10-26T06:32:30;99306.69;;;11.57;100.00
9289;BME280;4683;50.864;12.086;2022-10-26T06:35:14;99307.78;;;11.62;100.00
9289;BME280;4683;50.864;12.086;2022-10-26T06:37:49;99313.91;;;11.78;100.00
9289;BME280;4683;50.864;12.086;2022-10-26T06:40:19;99313.19;;;11.84;100.00
9289;BME280;4683;50.864;12.086;2022-10-26T06:42:48;99314.94;;;11.91;100.00
9289;BME280;4683;50.864;12.086;2022-10-26T06:45:19;99311.00;;;12.02;100.00
9289;BME280;4683;50.864;12.086;2022-10-26T06:47:53;99316.41;;;12.09;100.00
9289;BME280;4683;50.864;12.086;2022-10-26T06:50:32;99315.28;;;12.18;100.00
9289;BME280;4683;50.864;12.086;2022-10-26T06:53:20;99322.75;;;12.29;100.00
9289;BME280;4683;50.864;12.086;2022-10-26T06:55:53;99318.88;;;12.47;100.00
9289;BME280;4683;50.864;12.086;2022-10-26T06:58:25;99324.13;;;12.61;100.00
9289;BME280;4683;50.864;12.086;2022-10-26T07:00:55;99327.56;;;12.77;100.00
9289;BME280;4683;50.864;12.086;2022-10-26T07:03:23;99323.94;;;12.84;100.00
9289;BME280;4683;50.864;12.086;2022-10-26T07:05:52;99324.03;;;12.91;100.00
9289;BME280;4683;50.864;12.086;2022-10-26T07:08:21;99335.94;;;13.02;100.00
9289;BME280;4683;50.864;12.086;2022-10-26T07:10:50;99336.00;;;13.08;100.00
9289;BME280;4683;50.864;12.086;2022-10-26T07:13:18;99338.72;;;13.15;100.00
9289;BME280;4683;50.864;12.086;2022-10-26T07:15:49;99331.00;;;13.20;100.00
9289;BME280;4683;50.864;12.086;2022-10-26T07:18:18;99335.56;;;13.26;100.00
9289;BME280;4683;50.864;12.086;2022-10-26T07:20:47;99331.94;;;13.27;100.00
9289;BME280;4683;50.864;12.086;2022-10-26T07:23:15;99337.66;;;13.31;100.00
9289;BME280;4683;50.864;12.086;2022-10-26T07:25:45;99337.47;;;13.32;100.00
9289;BME280;4683;50.864;12.086;2022-10-26T07:28:14;99345.28;;;13.40;100.00
9289;BME280;4683;50.864;12.086;2022-10-26T07:30:42;99333.28;;;13.44;100.00
9289;BME280;4683;50.864;12.086;2022-10-26T07:33:12;99337.38;;;13.47;100.00
9289;BME280;4683;50.864;12.086;2022-10-26T07:35:42;99334.16;;;13.52;100.00
9289;BME280;4683;50.864;12.086;2022-10-26T07:38:12;99340.09;;;13.54;100.00
9289;BME280;4683;50.864;12.086;2022-10-26T07:40:40;99338.50;;;13.59;100.00
9289;BME280;4683;50.864;12.086;2022-10-26T07:43:10;99342.19;;;13.65;100.00
9289;BME280;4683;50.864;12.086;2022-10-26T07:45:38;99340.41;;;13.72;100.00
9289;BME280;4683;50.864;12.086;2022-10-26T07:48:07;99349.00;;;13.74;100.00
9289;BME280;4683;50.864;12.086;2022-10-26T07:50:35;99343.25;;;13.70;100.00
9289;BME280;4683;50.864;12.086;2022-10-26T07:53:04;99334.28;;;13.71;100.00
9289;BME280;4683;50.864;12.086;2022-10-26T07:55:33;99337.56;;;13.74;100.00
9289;BME280;4683;50.864;12.086;2022-10-26T07:58:04;99343.31;;;13.77;100.00
9289;BME280;4683;50.864;12.086;2022-10-26T08:00:34;99342.91;;;13.80;100.00
9289;BME280;4683;50.864;12.086;2022-10-26T08:03:03;99346.00;;;13.84;100.00
9289;BME280;4683;50.864;12.086;2022-10-26T08:05:31;99341.34;;;13.92;100.00
9289;BME280;4683;50.864;12.086;2022-10-26T08:08:00;99339.56;;;14.00;100.00
9289;BME280;4683;50.864;12.086;2022-10-26T08:10:29;99338.16;;;14.04;100.00
9289;BME280;4683;50.864;12.086;2022-10-26T08:12:58;99350.25;;;14.13;100.00
9289;BME280;4683;50.864;12.086;2022-10-26T08:15:26;99344.97;;;14.19;100.00
9289;BME280;4683;50.864;12.086;2022-10-26T08:17:56;99343.56;;;14.30;100.00
9289;BME280;4683;50.864;12.086;2022-10-26T08:20:25;99338.91;;;14.39;100.00
9289;BME280;4683;50.864;12.086;2022-10-26T08:22:56;99353.50;;;14.50;100.00
9289;BME280;4683;50.864;12.086;2022-10-26T08:25:26;99352.72;;;14.62;100.00
9289;BME280;4683;50.864;12.086;2022-10-26T08:27:55;99350.91;;;14.69;100.00
9289;BME280;4683;50.864;12.086;2022-10-26T08:30:27;99358.47;;;14.79;100.00
9289;BME280;4683;50.864;12.086;2022-10-26T08:33:02;99358.53;;;14.86;100.00
9289;BME280;4683;50.864;12.086;2022-10-26T08:35:32;99356.50;;;14.94;100.00
9289;BME280;4683;50.864;12.086;2022-10-26T08:38:01;99354.88;;;15.07;100.00
9289;BME280;4683;50.864;12.086;2022-10-26T08:40:32;99358.16;;;15.22;100.00
9289;BME280;4683;50.864;12.086;2022-10-26T08:43:04;99350.81;;;15.31;100.00
9289;BME280;4683;50.864;12.086;2022-10-26T08:45:44;99354.50;;;15.36;100.00
9289;BME280;4683;50.864;12.086;2022-10-26T08:48:19;99351.63;;;15.44;100.00
9289;BME280;4683;50.864;12.086;2022-10-26T08:50:54;99353.88;;;15.47;100.00
9289;BME280;4683;50.864;12.086;2022-10-26T08:53:28;99353.47;;;15.51;100.00
9289;BME280;4683;50.864;12.086;2022-10-26T08:56:04;99361.44;;;15.57;100.00
9289;BME280;4683;50.864;12.086;2022-10-26T08:58:40;99354.72;;;15.68;100.00
9289;BME280;4683;50.864;12.086;2022-10-26T09:01:13;99355.50;;;15.75;100.00
9289;BME280;4683;50.864;12.086;2022-10-26T09:03:42;99363.91;;;15.85;100.00
9289;BME280;4683;50.864;12.086;2022-10-26T09:06:21;99365.50;;;16.00;100.00
9289;BME280;4683;50.864;12.086;2022-10-26T09:09:01;99367.13;;;16.14;100.00
9289;BME280;4683;50.864;12.086;2022-10-26T09:11:46;99356.06;;;16.17;100.00
9289;BME280;4683;50.864;12.086;2022-10-26T09:14:24;99353.94;;;16.32;100.00
9289;BME280;4683;50.864;12.086;2022-10-26T09:17:09;99351.81;;;16.47;100.00
9289;BME280;4683;50.864;12.086;2022-10-26T09:20:12;99364.28;;;16.60;100.00
9289;BME280;4683;50.864;12.086;2022-10-26T09:22:52;99371.31;;;16.93;100.00
9289;BME280;4683;50.864;12.086;2022-10-26T09:25:32;99378.06;;;16.95;100.00
9289;BME280;4683;50.864;12.086;2022-10-26T09:28:11;99378.66;;;16.97;100.00
9289;BME280;4683;50.864;12.086;2022-10-26T09:30:43;99376.06;;;17.16;100.00
9289;BME280;4683;50.864;12.086;2022-10-26T09:33:16;99379.31;;;17.24;100.00
9289;BME280;4683;50.864;12.086;2022-10-26T09:35:51;99380.28;;;17.30;100.00
9289;BME280;4683;50.864;12.086;2022-10-26T09:38:28;99387.38;;;17.43;100.00
9289;BME280;4683;50.864;12.086;2022-10-26T09:41:04;99387.44;;;17.36;100.00
9289;BME280;4683;50.864;12.086;2022-10-26T09:43:38;99385.25;;;17.52;100.00
9289;BME280;4683;50.864;12.086;2022-10-26T09:46:17;99380.69;;;17.59;100.00
9289;BME280;4683;50.864;12.086;2022-10-26T09:48:50;99381.78;;;17.51;100.00
9289;BME280;4683;50.864;12.086;2022-10-26T09:51:21;99387.34;;;17.49;100.00
9289;BME280;4683;50.864;12.086;2022-10-26T09:53:50;99398.34;;;17.60;100.00
9289;BME280;4683;50.864;12.086;2022-10-26T09:56:18;99399.47;;;17.70;100.00
9289;BME280;4683;50.864;12.086;2022-10-26T09:58:52;99391.91;;;17.67;100.00
9289;BME280;4683;50.864;12.086;2022-10-26T10:01:29;99406.66;;;17.45;100.00
9289;BME280;4683;50.864;12.086;2022-10-26T10:04:17;99403.38;;;17.43;100.00
9289;BME280;4683;50.864;12.086;2022-10-26T10:06:50;99411.25;;;17.63;100.00
9289;BME280;4683;50.864;12.086;2022-10-26T10:09:22;99418.94;;;17.71;100.00
9289;BME280;4683;50.864;12.086;2022-10-26T10:11:53;99428.19;;;17.75;100.00
9289;BME280;4683;50.864;12.086;2022-10-26T10:14:24;99424.00;;;17.86;100.00
9289;BME280;4683;50.864;12.086;2022-10-26T10:16:56;99431.22;;;17.54;100.00
9289;BME280;4683;50.864;12.086;2022-10-26T10:19:27;99427.91;;;17.58;100.00
9289;BME280;4683;50.864;12.086;2022-10-26T10:22:00;99425.81;;;17.35;100.00
9289;BME280;4683;50.864;12.086;2022-10-26T10:24:31;99427.19;;;17.44;100.00
9289;BME280;4683;50.864;12.086;2022-10-26T10:27:02;99426.63;;;17.61;100.00
9289;BME280;4683;50.864;12.086;2022-10-26T10:29:33;99420.41;;;17.73;100.00
9289;BME280;4683;50.864;12.086;2022-10-26T10:32:15;99419.09;;;17.58;100.00
9289;BME280;4683;50.864;12.086;2022-10-26T10:34:44;99417.38;;;17.38;100.00
9289;BME280;4683;50.864;12.086;2022-10-26T10:37:24;99424.13;;;17.41;100.00
9289;BME280;4683;50.864;12.086;2022-10-26T10:39:57;99422.22;;;17.48;100.00
9289;BME280;4683;50.864;12.086;2022-10-26T10:42:31;99425.53;;;17.43;100.00
9289;BME280;4683;50.864;12.086;2022-10-26T10:45:01;99423.25;;;17.47;100.00
9289;BME280;4683;50.864;12.086;2022-10-26T10:47:32;99427.38;;;17.43;100.00
9289;BME280;4683;50.864;12.086;2022-10-26T10:50:04;99422.53;;;17.33;100.00
9289;BME280;4683;50.864;12.086;2022-10-26T10:52:35;99430.19;;;17.23;100.00
9289;BME280;4683;50.864;12.086;2022-10-26T10:55:16;99426.31;;;17.19;100.00
9289;BME280;4683;50.864;12.086;2022-10-26T10:58:01;99415.44;;;17.20;100.00
9289;BME280;4683;50.864;12.086;2022-10-26T11:00:36;99425.41;;;17.32;100.00
9289;BME280;4683;50.864;12.086;2022-10-26T11:03:18;99417.38;;;17.38;100.00
9289;BME280;4683;50.864;12.086;2022-10-26T11:06:09;99423.47;;;17.45;100.00
9289;BME280;4683;50.864;12.086;2022-10-26T11:08:45;99427.09;;;17.58;100.00
9289;BME280;4683;50.864;12.086;2022-10-26T11:11:20;99419.19;;;17.69;100.00
9289;BME280;4683;50.864;12.086;2022-10-26T11:13:54;99426.56;;;17.74;100.00
9289;BME280;4683;50.864;12.086;2022-10-26T11:16:31;99426.72;;;17.79;100.00
9289;BME280;4683;50.864;12.086;2022-10-26T11:19:05;99420.16;;;17.82;100.00
9289;BME280;4683;50.864;12.086;2022-10-26T11:21:36;99427.44;;;17.61;100.00
9289;BME280;4683;50.864;12.086;2022-10-26T11:24:17;99418.38;;;17.69;100.00
9289;BME280;4683;50.864;12.086;2022-10-26T11:26:51;99417.75;;;17.73;100.00
9289;BME280;4683;50.864;12.086;2022-10-26T11:29:30;99416.75;;;17.68;100.00
9289;BME280;4683;50.864;12.086;2022-10-26T11:32:09;99424.91;;;17.73;100.00
9289;BME280;4683;50.864;12.086;2022-10-26T11:34:47;99406.00;;;17.81;100.00
9289;BME280;4683;50.864;12.086;2022-10-26T11:37:24;99409.66;;;17.80;100.00
9289;BME280;4683;50.864;12.086;2022-10-26T11:40:13;99411.97;;;17.77;100.00
9289;BME280;4683;50.864;12.086;2022-10-26T11:42:48;99412.97;;;17.82;100.00
9289;BME280;4683;50.864;12.086;2022-10-26T11:45:24;99401.66;;;17.80;100.00
9289;BME280;4683;50.864;12.086;2022-10-26T11:48:01;99399.69;;;17.69;100.00
9289;BME280;4683;50.864;12.086;2022-10-26T11:50:35;99399.53;;;17.64;100.00
9289;BME280;4683;50.864;12.086;2022-10-26T11:53:13;99401.03;;;17.53;100.00
9289;BME280;4683;50.864;12.086;2022-10-26T11:55:47;99406.00;;;17.49;100.00
9289;BME280;4683;50.864;12.086;2022-10-26T11:58:18;99402.16;;;17.45;100.00
9289;BME280;4683;50.864;12.086;2022-10-26T12:00:54;99407.59;;;17.25;100.00
9289;BME280;4683;50.864;12.086;2022-10-26T12:03:27;99409.09;;;17.21;100.00
9289;BME280;4683;50.864;12.086;2022-10-26T12:05:56;99407.50;;;17.07;100.00
9289;BME280;4683;50.864;12.086;2022-10-26T12:08:29;99414.09;;;17.05;100.00
9289;BME280;4683;50.864;12.086;2022-10-26T12:11:04;99419.59;;;17.10;100.00
9289;BME280;4683;50.864;12.086;2022-10-26T12:13:39;99427.28;;;17.31;100.00
9289;BME280;4683;50.864;12.086;2022-10-26T12:16:41;99429.31;;;17.29;100.00
9289;BME280;4683;50.864;12.086;2022-10-26T12:19:20;99434.22;;;17.32;100.00
9289;BME280;4683;50.864;12.086;2022-10-26T12:21:52;99424.22;;;17.28;100.00
9289;BME280;4683;50.864;12.086;2022-10-26T12:24:42;99428.56;;;17.22;100.00
9289;BME280;4683;50.864;12.086;2022-10-26T12:27:33;99430.59;;;17.27;100.00
9289;BME280;4683;50.864;12.086;2022-10-26T12:30:26;99437.50;;;17.34;100.00
9289;BME280;4683;50.864;12.086;2022-10-26T12:32:57;99438.28;;;17.41;100.00
9289;BME280;4683;50.864;12.086;2022-10-26T12:35:40;99437.94;;;17.31;100.00
9289;BME280;4683;50.864;12.086;2022-10-26T12:38:57;99442.03;;;16.95;100.00
9289;BME280;4683;50.864;12.086;2022-10-26T12:41:28;99448.50;;;17.13;100.00
9289;BME280;4683;50.864;12.086;2022-10-26T12:44:10;99442.13;;;17.14;100.00
9289;BME280;4683;50.864;12.086;2022-10-26T12:46:51;99439.31;;;17.40;100.00
9289;BME280;4683;50.864;12.086;2022-10-26T12:49:58;99440.06;;;17.47;100.00
9289;BME280;4683;50.864;12.086;2022-10-26T12:52:46;99434.47;;;17.56;100.00
9289;BME280;4683;50.864;12.086;2022-10-26T12:56:01;99429.97;;;17.56;100.00
9289;BME280;4683;50.864;12.086;2022-10-26T12:59:07;99439.72;;;17.69;100.00
9289;BME280;4683;50.864;12.086;2022-10-26T13:02:23;99437.63;;;17.78;100.00
9289;BME280;4683;50.864;12.086;2022-10-26T13:05:31;99415.28;;;17.72;100.00
9289;BME280;4683;50.864;12.086;2022-10-26T13:08:06;99416.22;;;17.84;100.00
9289;BME280;4683;50.864;12.086;2022-10-26T13:10:37;99419.50;;;17.86;100.00
9289;BME280;4683;50.864;12.086;2022-10-26T13:13:08;99418.44;;;17.87;100.00
9289;BME280;4683;50.864;12.086;2022-10-26T13:15:54;99407.34;;;17.90;100.00
9289;BME280;4683;50.864;12.086;2022-10-26T13:18:23;99406.19;;;18.05;100.00
9289;BME280;4683;50.864;12.086;2022-10-26T13:21:01;99410.25;;;18.07;100.00
9289;BME280;4683;50.864;12.086;2022-10-26T13:23:32;99394.69;;;18.22;100.00
9289;BME280;4683;50.864;12.086;2022-10-26T13:26:10;99402.63;;;18.29;100.00
9289;BME280;4683;50.864;12.086;2022-10-26T13:28:47;99398.41;;;18.40;100.00
9289;BME280;4683;50.864;12.086;2022-10-26T13:31:55;99412.59;;;18.40;100.00
9289;BME280;4683;50.864;12.086;2022-10-26T13:34:27;99407.75;;;18.67;100.00
9289;BME280;4683;50.864;12.086;2022-10-26T13:37:11;99417.31;;;18.75;100.00
9289;BME280;4683;50.864;12.086;2022-10-26T13:39:45;99415.16;;;18.84;100.00
9289;BME280;4683;50.864;12.086;2022-10-26T13:42:18;99422.38;;;18.46;100.00
9289;BME280;4683;50.864;12.086;2022-10-26T13:44:53;99430.22;;;18.23;100.00